Time,TemperatureF,DewpointF,PressureIn,WindDirection,WindDirectionDegrees,WindSpeedMPH,WindSpeedGustMPH,Humidity,HourlyPrecipIn,Conditions,Clouds,dailyrainin,SoftwareType,DateUTC
2013-09-04 00:12:00,62.0,59.0,30.06,North,355,0.0,0.0,91,0.00,,,0.00,weatherlink.com 1.10,2013-09-04 05:12:00,
2013-09-04 00:27:00,61.6,59.0,30.06,North,355,0.0,0.0,91,0.00,,,0.00,weatherlink.com 1.10,2013-09-04 05:27:00,
2013-09-04 00:42:00,61.0,59.0,30.06,North,355,0.0,0.0,92,0.00,,,0.00,weatherlink.com 1.10,2013-09-04 05:42:00,
2013-09-04 00:57:00,60.4,58.0,30.07,North,355,0.0,0.0,92,0.00,,,0.00,weatherlink.com 1.10,2013-09-04 05:57:00,
2013-09-04 01:12:00,60.0,58.0,30.07,North,355,0.0,0.0,93,0.00,,,0.00,weatherlink.com 1.10,2013-09-04 06:12:00,
2013-09-04 01:27:00,60.3,59.0,30.07,North,355,0.0,0.0,94,0.00,,,0.00,weatherlink.com 1.10,2013-09-04 06:27:00,
2013-09-04 01:42:00,60.0,58.0,30.07,North,355,0.0,0.0,93,0.00,,,0.00,weatherlink.com 1.10,2013-09-04 06:42:00,
2013-09-04 01:57:00,59.1,57.0,30.06,North,355,0.0,0.0,93,0.00,,,0.00,weatherlink.com 1.10,2013-09-04 06:57:00,
2013-09-04 02:12:00,59.0,57.0,30.06,North,355,0.0,0.0,94,0.00,,,0.00,weatherlink.com 1.10,2013-09-04 07:12:00,
2013-09-04 02:27:00,58.9,57.0,30.06,North,355,0.0,0.0,94,0.00,,,0.00,weatherlink.com 1.10,2013-09-04 07:27:00,
2013-09-04 02:42:00,58.6,57.0,30.06,North,355,0.0,0.0,94,0.00,,,0.00,weatherlink.com 1.10,2013-09-04 07:42:00,
2013-09-04 02:57:00,57.7,56.0,30.06,North,355,0.0,0.0,94,0.00,,,0.00,weatherlink.com 1.10,2013-09-04 07:57:00,
2013-09-04 03:12:00,57.5,56.0,30.06,North,355,0.0,0.0,95,0.00,,,0.00,weatherlink.com 1.10,2013-09-04 08:12:00,
2013-09-04 03:27:00,57.3,56.0,30.07,North,355,0.0,0.0,94,0.00,,,0.00,weatherlink.com 1.10,2013-09-04 08:27:00,
2013-09-04 03:42:00,56.8,55.0,30.07,North,355,0.0,0.0,95,0.00,,,0.00,weatherlink.com 1.10,2013-09-04 08:42:00,
2013-09-04 03:57:00,57.0,56.0,30.07,North,355,0.0,0.0,95,0.00,,,0.00,weatherlink.com 1.10,2013-09-04 08:57:00,
2013-09-04 04:12:00,56.8,55.0,30.07,North,355,0.0,0.0,95,0.00,,,0.00,weatherlink.com 1.10,2013-09-04 09:12:00,
2013-09-04 04:27:00,57.0,56.0,30.07,North,355,0.0,0.0,95,0.00,,,0.00,weatherlink.com 1.10,2013-09-04 09:27:00,
2013-09-04 04:42:00,56.5,55.0,30.07,North,355,0.0,0.0,95,0.00,,,0.00,weatherlink.com 1.10,2013-09-04 09:42:00,
2013-09-04 04:57:00,56.0,55.0,30.07,North,355,0.0,0.0,95,0.00,,,0.00,weatherlink.com 1.10,2013-09-04 09:57:00,
2013-09-04 05:12:00,55.2,54.0,30.07,North,355,0.0,0.0,95,0.00,,,0.00,weatherlink.com 1.10,2013-09-04 10:12:00,
2013-09-04 05:27:00,55.5,54.0,30.07,North,355,0.0,0.0,95,0.00,,,0.00,weatherlink.com 1.10,2013-09-04 10:27:00,
2013-09-04 05:42:00,54.8,53.0,30.08,North,355,0.0,0.0,95,0.00,,,0.00,weatherlink.com 1.10,2013-09-04 10:42:00,
2013-09-04 05:57:00,54.1,53.0,30.08,North,355,0.0,0.0,95,0.00,,,0.00,weatherlink.com 1.10,2013-09-04 10:57:00,
2013-09-04 06:12:00,54.8,54.0,30.09,North,355,0.0,0.0,96,0.00,,,0.00,weatherlink.com 1.10,2013-09-04 11:12:00,
2013-09-04 06:27:00,55.0,54.0,30.10,North,355,0.0,0.0,96,0.00,,,0.00,weatherlink.com 1.10,2013-09-04 11:27:00,
2013-09-04 06:43:00,55.3,54.0,30.11,North,355,0.0,0.0,96,0.00,,,0.00,weatherlink.com 1.10,2013-09-04 11:43:00,
2013-09-04 06:58:00,54.8,54.0,30.11,North,355,0.0,0.0,96,0.00,,,0.00,weatherlink.com 1.10,2013-09-04 11:58:00,
2013-09-04 07:13:00,55.1,54.0,30.12,North,355,0.0,0.0,96,0.00,,,0.00,weatherlink.com 1.10,2013-09-04 12:13:00,
2013-09-04 07:28:00,56.4,55.0,30.12,North,355,0.0,0.0,96,0.00,,,0.00,weatherlink.com 1.10,2013-09-04 12:28:00,
2013-09-04 07:43:00,57.6,57.0,30.13,North,355,0.0,1.0,96,0.00,,,0.00,weatherlink.com 1.10,2013-09-04 12:43:00,
2013-09-04 07:58:00,58.6,58.0,30.13,North,355,0.0,0.0,96,0.00,,,0.00,weatherlink.com 1.10,2013-09-04 12:58:00,
2013-09-04 08:13:00,60.3,59.0,30.13,North,355,0.0,0.0,96,0.00,,,0.00,weatherlink.com 1.10,2013-09-04 13:13:00,
2013-09-04 08:28:00,62.5,61.0,30.13,North,355,0.0,2.0,96,0.00,,,0.00,weatherlink.com 1.10,2013-09-04 13:28:00,
2013-09-04 08:43:00,63.7,63.0,30.14,North,355,0.0,1.0,96,0.00,,,0.00,weatherlink.com 1.10,2013-09-04 13:43:00,
2013-09-04 08:58:00,64.9,64.0,30.14,North,355,1.0,2.0,96,0.00,,,0.00,weatherlink.com 1.10,2013-09-04 13:58:00,
2013-09-04 09:13:00,66.9,65.0,30.14,North,355,0.0,3.0,92,0.00,,,0.00,weatherlink.com 1.10,2013-09-04 14:13:00,
2013-09-04 09:28:00,69.1,65.0,30.15,North,355,1.0,4.0,85,0.00,,,0.00,weatherlink.com 1.10,2013-09-04 14:28:00,
2013-09-04 09:43:00,71.3,64.0,30.15,North,355,4.0,5.0,77,0.00,,,0.00,weatherlink.com 1.10,2013-09-04 14:43:00,
2013-09-04 09:58:00,72.3,64.0,30.15,North,355,0.0,4.0,75,0.00,,,0.00,weatherlink.com 1.10,2013-09-04 14:58:00,
2013-09-04 10:13:00,73.9,65.0,30.15,North,355,0.0,5.0,73,0.00,,,0.00,weatherlink.com 1.10,2013-09-04 15:13:00,
2013-09-04 10:28:00,75.1,66.0,30.15,North,355,0.0,3.0,72,0.00,,,0.00,weatherlink.com 1.10,2013-09-04 15:28:00,
2013-09-04 10:43:00,76.7,64.0,30.15,North,355,1.0,4.0,64,0.00,,,0.00,weatherlink.com 1.10,2013-09-04 15:43:00,
2013-09-04 10:58:00,77.0,64.0,30.15,North,355,3.0,6.0,64,0.00,,,0.00,weatherlink.com 1.10,2013-09-04 15:58:00,
2013-09-04 11:13:00,77.1,63.0,30.15,NNW,334,3.0,7.0,63,0.00,,,0.00,weatherlink.com 1.10,2013-09-04 16:13:00,
2013-09-04 11:58:00,78.2,64.0,30.15,North,360,2.0,6.0,61,0.00,,,0.00,weatherlink.com 1.10,2013-09-04 16:58:00,
2013-09-04 12:13:00,78.2,62.0,30.15,NE,51,1.0,8.0,57,0.00,,,0.00,weatherlink.com 1.10,2013-09-04 17:13:00,
2013-09-04 12:28:00,78.8,62.0,30.14,ENE,61,2.0,5.0,56,0.00,,,0.00,weatherlink.com 1.10,2013-09-04 17:28:00,
2013-09-04 12:44:00,79.2,65.0,30.14,NW,324,1.0,7.0,61,0.00,,,0.00,weatherlink.com 1.10,2013-09-04 17:44:00,
2013-09-04 12:59:00,80.1,64.0,30.14,NNW,336,2.0,5.0,58,0.00,,,0.00,weatherlink.com 1.10,2013-09-04 17:59:00,
2013-09-04 13:14:00,79.9,65.0,30.13,SSW,198,1.0,5.0,60,0.00,,,0.00,weatherlink.com 1.10,2013-09-04 18:14:00,
2013-09-04 13:29:00,80.7,63.0,30.13,North,5,1.0,5.0,55,0.00,,,0.00,weatherlink.com 1.10,2013-09-04 18:29:00,
2013-09-04 13:44:00,80.9,64.0,30.13,NW,321,1.0,7.0,56,0.00,,,0.00,weatherlink.com 1.10,2013-09-04 18:44:00,
2013-09-04 13:59:00,81.2,63.0,30.13,NNW,348,2.0,6.0,54,0.00,,,0.00,weatherlink.com 1.10,2013-09-04 18:59:00,
2013-09-04 14:14:00,81.2,63.0,30.12,NNW,348,4.0,5.0,54,0.00,,,0.00,weatherlink.com 1.10,2013-09-04 19:14:00,
2013-09-04 14:29:00,81.8,62.0,30.11,NNW,348,0.0,3.0,51,0.00,,,0.00,weatherlink.com 1.10,2013-09-04 19:29:00,
2013-09-04 14:44:00,82.9,64.0,30.11,NNW,348,2.0,4.0,53,0.00,,,0.00,weatherlink.com 1.10,2013-09-04 19:44:00,
2013-09-04 14:59:00,82.8,63.0,30.10,North,349,5.0,7.0,52,0.00,,,0.00,weatherlink.com 1.10,2013-09-04 19:59:00,
2013-09-04 15:14:00,83.2,63.0,30.10,NW,325,1.0,4.0,51,0.00,,,0.00,weatherlink.com 1.10,2013-09-04 20:14:00,
2013-09-04 15:29:00,82.8,61.0,30.10,NNE,30,1.0,3.0,47,0.00,,,0.00,weatherlink.com 1.10,2013-09-04 20:29:00,
2013-09-04 15:44:00,83.6,63.0,30.09,NNE,30,0.0,3.0,50,0.00,,,0.00,weatherlink.com 1.10,2013-09-04 20:44:00,
2013-09-04 15:59:00,84.1,64.0,30.09,NNE,30,3.0,3.0,51,0.00,,,0.00,weatherlink.com 1.10,2013-09-04 20:59:00,
2013-09-04 16:14:00,83.8,60.0,30.09,NE,38,0.0,2.0,44,0.00,,,0.00,weatherlink.com 1.10,2013-09-04 21:14:00,
2013-09-04 16:29:00,84.2,64.0,30.09,NNE,21,1.0,3.0,50,0.00,,,0.00,weatherlink.com 1.10,2013-09-04 21:29:00,
2013-09-04 16:44:00,83.5,62.0,30.09,NNW,342,1.0,5.0,48,0.00,,,0.00,weatherlink.com 1.10,2013-09-04 21:44:00,
2013-09-04 16:59:00,83.1,63.0,30.09,NNW,342,4.0,4.0,51,0.00,,,0.00,weatherlink.com 1.10,2013-09-04 21:59:00,
2013-09-04 17:14:00,83.0,62.0,30.08,NNW,348,1.0,4.0,50,0.00,,,0.00,weatherlink.com 1.10,2013-09-04 22:14:00,
2013-09-04 17:29:00,83.0,63.0,30.08,NNW,348,1.0,3.0,51,0.00,,,0.00,weatherlink.com 1.10,2013-09-04 22:29:00,
2013-09-04 17:44:00,82.9,63.0,30.09,NNW,348,1.0,3.0,52,0.00,,,0.00,weatherlink.com 1.10,2013-09-04 22:44:00,
2013-09-04 17:59:00,82.1,63.0,30.09,NNW,348,0.0,3.0,52,0.00,,,0.00,weatherlink.com 1.10,2013-09-04 22:59:00,
2013-09-04 18:14:00,82.1,64.0,30.09,NNW,348,0.0,1.0,55,0.00,,,0.00,weatherlink.com 1.10,2013-09-04 23:14:00,
2013-09-04 18:29:00,81.8,66.0,30.09,NNW,348,0.0,0.0,59,0.00,,,0.00,weatherlink.com 1.10,2013-09-04 23:29:00,
2013-09-04 18:44:00,80.8,65.0,30.09,NNW,348,0.0,0.0,59,0.00,,,0.00,weatherlink.com 1.10,2013-09-04 23:44:00,
2013-09-04 18:59:00,78.6,65.0,30.09,NNW,348,0.0,0.0,63,0.00,,,0.00,weatherlink.com 1.10,2013-09-04 23:59:00,
2013-09-04 19:14:00,76.4,64.0,30.09,NNW,348,0.0,0.0,66,0.00,,,0.00,weatherlink.com 1.10,2013-09-05 00:14:00,
2013-09-04 19:29:00,73.9,64.0,30.09,NNW,348,0.0,0.0,72,0.00,,,0.00,weatherlink.com 1.10,2013-09-05 00:29:00,
2013-09-04 19:44:00,71.7,64.0,30.09,NNW,348,0.0,0.0,76,0.00,,,0.00,weatherlink.com 1.10,2013-09-05 00:44:00,
2013-09-04 19:59:00,69.8,63.0,30.09,NNW,348,0.0,0.0,79,0.00,,,0.00,weatherlink.com 1.10,2013-09-05 00:59:00,
2013-09-04 20:14:00,68.2,63.0,30.10,NNW,348,0.0,0.0,82,0.00,,,0.00,weatherlink.com 1.10,2013-09-05 01:14:00,
2013-09-04 20:29:00,67.4,62.0,30.11,NNW,348,0.0,0.0,84,0.00,,,0.00,weatherlink.com 1.10,2013-09-05 01:29:00,
2013-09-04 20:44:00,66.0,61.0,30.11,NNW,348,0.0,0.0,85,0.00,,,0.00,weatherlink.com 1.10,2013-09-05 01:44:00,
2013-09-04 20:59:00,65.0,61.0,30.12,NNW,348,0.0,0.0,87,0.00,,,0.00,weatherlink.com 1.10,2013-09-05 01:59:00,
2013-09-04 21:14:00,64.4,61.0,30.12,NNW,348,0.0,0.0,88,0.00,,,0.00,weatherlink.com 1.10,2013-09-05 02:14:00,
2013-09-04 21:29:00,64.1,61.0,30.12,NNW,348,0.0,0.0,88,0.00,,,0.00,weatherlink.com 1.10,2013-09-05 02:29:00,
2013-09-04 21:44:00,64.1,61.0,30.12,NNW,348,0.0,2.0,89,0.00,,,0.00,weatherlink.com 1.10,2013-09-05 02:44:00,
2013-09-04 21:59:00,63.6,60.0,30.13,NNW,348,0.0,0.0,89,0.00,,,0.00,weatherlink.com 1.10,2013-09-05 02:59:00,
2013-09-04 22:14:00,63.1,60.0,30.13,NNW,348,0.0,0.0,90,0.00,,,0.00,weatherlink.com 1.10,2013-09-05 03:14:00,
2013-09-04 22:29:00,62.1,59.0,30.13,NNW,348,0.0,0.0,90,0.00,,,0.00,weatherlink.com 1.10,2013-09-05 03:29:00,
2013-09-04 22:44:00,61.9,59.0,30.13,NNW,348,0.0,0.0,91,0.00,,,0.00,weatherlink.com 1.10,2013-09-05 03:44:00,
2013-09-04 22:59:00,62.0,60.0,30.13,NNW,348,0.0,0.0,92,0.00,,,0.00,weatherlink.com 1.10,2013-09-05 03:59:00,
2013-09-04 23:14:00,61.7,59.0,30.13,NNW,348,0.0,0.0,92,0.00,,,0.00,weatherlink.com 1.10,2013-09-05 04:14:00,
2013-09-04 23:29:00,61.3,59.0,30.13,NNW,348,0.0,0.0,92,0.00,,,0.00,weatherlink.com 1.10,2013-09-05 04:29:00,
2013-09-04 23:44:00,60.6,58.0,30.14,NNW,348,0.0,0.0,92,0.00,,,0.00,weatherlink.com 1.10,2013-09-05 04:44:00,
2013-09-04 23:59:00,60.0,58.0,30.13,NNW,348,0.0,0.0,92,0.00,,,0.00,weatherlink.com 1.10,2013-09-05 04:59:00,